This is the latest recevied weather packets stored in our database for station/object KB1WCR. If no packets are shown the sender has not sent any weather packets the latest 10 day(s).
| Time | Temp. | Humidity | Pressure | Rain* | Wind** | Luminosity | Snow |
|---|---|---|---|---|---|---|---|
| 1777924217 | 21.11° C | 41% | 1005.1 hPa | 0 mm | - | 606 W/m² | - |
| 1777923914 | 21.11° C | 41% | 1005.2 hPa | 0 mm | - | 477 W/m² | - |
| 1777923609 | 20.56° C | 43% | 1005.1 hPa | 0 mm | - | 655 W/m² | - |
| 1777923306 | 20.56° C | 42% | 1005.2 hPa | 0 mm | - | 516 W/m² | - |
| 1777923005 | 20.56° C | 42% | 1005.2 hPa | 0 mm | - | 558 W/m² | - |
| 1777922703 | 21.11° C | 42% | 1005 hPa | 0 mm | - | 573 W/m² | - |
| 1777922401 | 20° C | 44% | 1005.2 hPa | 0 mm | - | 578 W/m² | - |
| 1777922098 | 20° C | 41% | 1005.1 hPa | 0 mm | - | 585 W/m² | - |
| 1777921794 | 20° C | 43% | 1005 hPa | 0 mm | - | 596 W/m² | - |
| 1777921489 | 20° C | 42% | 1005.1 hPa | 0 mm | - | 606 W/m² | - |
| 1777921186 | 19.44° C | 44% | 1005.2 hPa | 0 mm | - | 648 W/m² | - |
| 1777920884 | 18.89° C | 46% | 1005.3 hPa | 0 mm | - | 686 W/m² | - |
| 1777920579 | 18.89° C | 46% | 1005.1 hPa | 0 mm | - | 678 W/m² | - |
| 1777920276 | 17.78° C | 46% | 1005.5 hPa | 0 mm | - | 275 W/m² | - |
| 1777919971 | 17.78° C | 46% | 1005.4 hPa | 0 mm | - | 125 W/m² | - |
| 1777919669 | 17.78° C | 45% | 1005.4 hPa | 0 mm | - | 186 W/m² | - |
| 1777919367 | 17.78° C | 46% | 1005.5 hPa | 0 mm | - | 185 W/m² | - |
| 1777919063 | 17.78° C | 46% | 1005.7 hPa | 0 mm | - | 134 W/m² | - |
| 1777918761 | 17.78° C | 45% | 1005.6 hPa | 0 mm | - | 90 W/m² | - |
| 1777918458 | 17.78° C | 43% | 1005.4 hPa | 0 mm | - | 107 W/m² | - |
| 1777918157 | 17.78° C | 44% | 1005.3 hPa | 0 mm | - | 103 W/m² | - |
| 1777917855 | 17.78° C | 45% | 1005.4 hPa | 0 mm | - | 114 W/m² | - |
| 1777917553 | 18.33° C | 43% | 1005.5 hPa | 0 mm | - | 124 W/m² | - |
| 1777917249 | 18.33° C | 44% | 1005.7 hPa | 0 mm | - | 124 W/m² | - |
| 1777916947 | 18.33° C | 43% | 1005.5 hPa | 0 mm | - | 123 W/m² | - |
* Rain latest hour (hover to see other rain measurements)
** Current wind speed in m/s (hover to see current wind gust speed)